• Join FlightAware (Why Join?)
  • Login
  • US Flag 
10:05PM EDT


 

Airport Tracker/Info


-or-


 

Live Flight TrackerFlight Track Log ✈ DAL6044 ✈ 01-May-2013 ✈ KCLE - KLGA

Flight Track Log - Related Links

Times and Time Zones

All times are in EDT time to prevent confusion due to time zone crossing. See the DAL6044 flight status page for this flight to view local times or setup timezone preferences in your user account.

Time Position Orientation Groundspeed Altitude Reporting Facility
EDT Latitude Longitude Course Direction KTS MPH feet Rate Location/Type
07:45PM 41.3961 -81.8786 105° East 183 211 1,700  Level Cleveland Center
07:45PM 41.3936 -81.9006 261° West 192 221 2,600 2,700 Climbing Cleveland Center
07:45PM 41.3975 -81.9256 282° West 208 239 3,600 2,700 Climbing Cleveland Center
07:46PM 41.4450 -81.9653 328° Northwest 238 274 6,400 3,060 Climbing Cleveland Center
07:47PM 41.5014 -81.9528 North 230 265 9,800 2,760 Climbing Cleveland Center
07:48PM 41.7354 -81.5146 37° Northeast  Level FlightAware Approximate
07:48PM 41.5442 -81.8786 52° Northeast 214 246 12,000  Level Cleveland Center
07:49PM 41.8199 -81.4302 37° Northeast  Level FlightAware Approximate
07:49PM 41.5783 -81.7878 63° Northeast 253 291 13,800  Level Cleveland Center
07:50PM 41.8168 -81.3008 105° East  Level FlightAware Approximate
07:50PM 41.5711 -81.6878 95° East 286 329 15,900  Level Cleveland Center
07:51PM 41.5617 -81.5711 96° East 311 358 17,800 2,100 Climbing Cleveland Center
07:52PM 41.5503 -81.4489 97° East 324 373 20,100 2,340 Climbing Cleveland Center
07:53PM 41.5386 -81.3128 96° East 332 382 22,500 2,280 Climbing Cleveland Center
07:54PM 41.5269 -81.1906 97° East 332 382 24,700 1,200 Climbing Cleveland Center
07:55PM 41.5150 -81.0572 97° East 347 399 25,000 120 Climbing Cleveland Center
07:56PM 41.5031 -80.9158 96° East 370 426 25,000  Level Cleveland Center
07:57PM 41.4886 -80.7689 97° East 382 440 25,000  Level Cleveland Center
07:58PM 41.4764 -80.6303 97° East 388 447 25,000  Level Cleveland Center
07:59PM 41.4639 -80.4972 97° East 377 434 25,000  Level Cleveland Center
08:00PM 41.4511 -80.3669 97° East 355 409 25,000  Level Cleveland Center
08:01PM 41.4425 -80.2536 96° East 350 403 25,000  Level Cleveland Center
08:02PM 41.4275 -80.1289 99° East 345 397 25,000  Level Cleveland Center
08:03PM 41.4167 -80.0072 97° East 340 391 25,000  Level Cleveland Center
08:04PM 41.4033 -79.8828 98° East 335 386 25,000  Level Cleveland Center
08:05PM 41.3922 -79.7611 97° East 335 386 25,000  Level Cleveland Center
08:06PM 41.3786 -79.6422 99° East 335 386 25,000  Level Cleveland Center
08:07PM 41.3650 -79.5042 97° East 343 395 25,000  Level Cleveland Center
08:08PM 41.3511 -79.3550 97° East 378 435 25,000  Level Cleveland Center
08:09PM 41.3325 -79.2006 99° East 404 465 25,000  Level Cleveland Center
08:10PM 41.3161 -79.0461 98° East 417 480 25,000  Level Cleveland Center
08:11PM 41.2992 -78.8861 98° East 425 489 25,000  Level Cleveland Center
08:12PM 41.2819 -78.7264 98° East 425 489 25,000  Level Cleveland Center
08:13PM 41.2647 -78.5664 98° East 430 495 25,000  Level Cleveland Center
08:14PM 41.2472 -78.4069 98° East 430 495 25,000  Level Cleveland Center
08:15PM 41.2294 -78.2836 101° East 427 491 25,000  Level New York Center
08:16PM 41.2119 -78.1300 99° East 427 491 25,000  Level New York Center
08:17PM 41.1925 -77.9733 99° East 427 491 25,000  Level New York Center
08:18PM 41.1744 -77.8225 99° East 421 484 25,000  Level New York Center
08:19PM 41.1564 -77.6689 99° East 421 484 25,000  Level New York Center
08:20PM 41.1361 -77.5125 100° East 415 478 25,000  Level New York Center
08:21PM 41.1200 -77.3925 100° East 415 478 25,000  Level New York Center
08:22PM 41.0978 -77.2306 100° East 410 472 25,000  Level New York Center
08:23PM 41.0769 -77.0744 100° East 416 479 25,000  Level New York Center
08:25PM 41.0364 -76.7736 100° East 416 479 25,000 -420 Level New York Center
08:26PM 41.0106 -76.6228 103° East 416 479 23,800 -1,920 Descending New York Center
08:27PM 40.9758 -76.4767 107° East 416 479 21,300 -2,700 Descending New York Center
08:28PM 40.9397 -76.3172 107° East 416 479 18,400 -1,680 Descending New York Center
08:29PM 40.9047 -76.1769 108° East 408 470 18,000 -540 Descending New York Center
08:30PM 40.8728 -76.0483 108° East 408 470 17,400 -1,560 Descending New York Center
08:31PM 40.8414 -75.9142 107° East 402 463 14,900 -2,220 Descending New York Center
08:32PM 40.8056 -75.7742 109° East 377 434 13,000 -960 Descending New York Center
08:33PM 40.7756 -75.6489 108° East 371 427 13,000  Level New York Center
08:34PM 40.7431 -75.5206 108° East 371 427 13,000  Level New York Center
08:35PM 40.7131 -75.3869 106° East 376 433 13,000 -60 Level New York Center
08:36PM 40.6869 -75.2567 105° East 371 427 12,900 -780 Descending New York Center
08:37PM 40.6539 -75.1314 109° East 364 419 11,500 -1,440 Descending New York Center
08:38PM 40.5906 -75.0425 133° Southeast 364 419 10,100 -780 Descending New York Center
08:39PM 40.5464 -74.9361 119° Southeast 352 405 10,000 -60 Descending New York Center
08:40PM 40.5111 -74.8136 111° Southeast 328 377 10,000  Level New York Center
08:41PM 40.4833 -74.7000 108° East 331 381 10,000  Level New York TRACON
08:42PM 40.4333 -74.6000 123° Southeast 333 383 10,000 -180 Level New York TRACON
08:43PM 40.3667 -74.5167 136° Southeast 290 334 9,700 -840 Descending New York TRACON
08:44PM 40.3500 -74.4333 105° East 258 297 8,300 -840 Descending New York TRACON
08:45PM 40.4000 -74.3667 45° Northeast 243 280 8,000 -180 Descending New York TRACON
08:46PM 40.4500 -74.3000 45° Northeast 243 280 8,000  Level New York TRACON
08:47PM 40.5000 -74.2333 45° Northeast 267 307 8,000 -300 Level New York TRACON
08:48PM 40.5333 -74.1500 62° Northeast 257 296 7,400 -1,080 Descending New York TRACON
08:49PM 40.5833 -74.0833 45° Northeast 256 295 5,900 -1,500 Descending New York TRACON
08:50PM 40.6500 -74.0500 21° North 248 285 4,500 -1,020 Descending New York TRACON
08:51PM 40.7167 -74.0333 11° North 248 285 4,000 -300 Descending New York TRACON
08:52PM 40.7833 -74.0000 21° North 252 290 4,000 -360 Level New York TRACON
08:53PM 40.8333 -73.9667 27° Northeast 253 291 3,300 -540 Descending New York TRACON
08:54PM 40.8833 -73.9000 45° Northeast 224 258 3,000 -600 Descending New York TRACON
08:55PM 40.9167 -73.8333 56° Northeast 192 221 2,100 -600 Descending New York TRACON
08:56PM 40.8667 -73.8167 166° South 168 193 1,800 -480 Descending New York TRACON
08:57PM 40.8333 -73.8333 201° Southwest 130 150 1,200 -720 Descending New York TRACON